Time;durP1;ratioP1;P1;durP2;ratioP2;P2;SDS_P1;SDS_P2;PMS_P1;PMS_P2;Temp;Humidity;BMP_temperature;BMP_pressure;BME280_temperature;BME280_humidity;BME280_pressure;Samples;Min_cycle;Max_cycle;Signal;HPM_P1;HPM_P2
2023/07/11 00:00:06;;;;;;;;;6.25;4.00;;;;;27.06;30.22;101203.47;5079938;28;45379;-64
2023/07/11 00:02:32;;;;;;;;;5.75;5.25;;;;;27.01;30.23;101197.59;5081460;27;45328;-64
2023/07/11 00:04:59;;;;;;;;;5.75;4.50;;;;;26.97;30.28;101199.66;5079757;28;45508;-64
2023/07/11 00:07:24;;;;;;;;;5.00;5.00;;;;;26.93;30.54;101199.03;5081148;28;45177;-64
2023/07/11 00:09:50;;;;;;;;;7.25;5.00;;;;;26.90;29.74;101193.84;5079368;28;45342;-64
2023/07/11 00:12:16;;;;;;;;;4.00;3.00;;;;;26.82;30.06;101179.25;5081111;28;45199;-64
2023/07/11 00:14:41;;;;;;;;;6.25;5.50;;;;;26.82;30.10;101185.50;5079538;28;45373;-64
2023/07/11 00:17:07;;;;;;;;;4.25;4.25;;;;;26.80;30.17;101186.59;5080703;28;46121;-64
2023/07/11 00:19:56;;;;;;;;;6.75;6.00;;;;;26.79;30.32;101187.56;5079255;28;45446;-64
2023/07/11 00:22:22;;;;;;;;;6.50;5.50;;;;;26.76;30.50;101177.88;5074699;28;45333;-64
2023/07/11 00:24:49;;;;;;;;;6.00;6.00;;;;;26.69;30.31;101174.78;5079833;28;45181;-64
2023/07/11 00:27:17;;;;;;;;;6.00;5.00;;;;;26.71;30.46;101172.81;5079583;28;45269;-64
2023/07/11 00:29:43;;;;;;;;;6.50;5.00;;;;;26.68;30.79;101172.16;5080323;28;45381;-64
2023/07/11 00:32:08;;;;;;;;;5.00;5.00;;;;;26.67;30.90;101174.03;5080296;28;45306;-64
2023/07/11 00:34:34;;;;;;;;;5.75;4.75;;;;;26.64;30.88;101163.50;5080306;28;45370;-64
2023/07/11 00:36:59;;;;;;;;;9.50;5.00;;;;;26.61;31.02;101167.25;5080264;27;45334;-64
2023/07/11 00:39:27;;;;;;;;;5.50;4.00;;;;;26.60;30.36;101170.94;5080350;28;45411;-64
2023/07/11 00:41:53;;;;;;;;;4.00;4.00;;;;;26.57;30.48;101163.06;5080282;28;45382;-65
2023/07/11 00:44:18;;;;;;;;;4.25;4.25;;;;;26.57;30.43;101170.31;5080173;28;45149;-64
2023/07/11 00:46:44;;;;;;;;;4.00;3.25;;;;;26.54;30.65;101160.63;5080122;28;45614;-64
2023/07/11 00:49:12;;;;;;;;;5.50;5.00;;;;;26.53;30.86;101164.28;5080080;28;45392;-64
2023/07/11 00:51:42;;;;;;;;;6.50;6.00;;;;;26.49;30.97;101152.03;5068739;28;45333;-64
2023/07/11 00:54:13;;;;;;;;;7.50;6.00;;;;;26.47;30.75;101156.66;5079772;28;45264;-64
2023/07/11 00:56:43;;;;;;;;;6.50;5.50;;;;;26.47;31.29;101153.97;5079718;28;46541;-64
2023/07/11 00:59:09;;;;;;;;;7.75;5.25;;;;;26.43;30.63;101155.19;5079923;27;46255;-64
2023/07/11 01:01:35;;;;;;;;;8.75;5.00;;;;;26.43;31.39;101155.19;5079920;28;45236;-64
2023/07/11 01:04:00;;;;;;;;;5.00;4.50;;;;;26.41;30.65;101154.44;5078385;28;45309;-64
2023/07/11 01:06:29;;;;;;;;;5.50;5.25;;;;;26.39;30.79;101161.75;5079632;28;45758;-64
2023/07/11 01:08:56;;;;;;;;;6.00;5.00;;;;;26.38;30.81;101157.38;5067520;28;45412;-64
2023/07/11 01:11:24;;;;;;;;;6.50;4.25;;;;;26.35;31.57;101154.88;5076750;28;45277;-64
2023/07/11 01:13:50;;;;;;;;;10.00;6.00;;;;;26.33;31.23;101154.16;5079693;28;45270;-64
2023/07/11 01:16:16;;;;;;;;;5.75;4.50;;;;;26.30;31.02;101151.69;5079013;28;45375;-64
2023/07/11 01:18:42;;;;;;;;;5.75;4.75;;;;;26.28;31.50;101157.19;5079330;28;49771;-64
2023/07/11 01:21:08;;;;;;;;;4.00;4.00;;;;;26.25;30.99;101155.56;5075118;28;45308;-65
2023/07/11 01:23:34;;;;;;;;;4.75;3.00;;;;;26.22;31.63;101150.41;5058769;28;45554;-64
2023/07/11 01:26:05;;;;;;;;;4.75;4.25;;;;;26.21;31.82;101150.53;5058681;28;46092;-64
2023/07/11 01:28:30;;;;;;;;;4.00;3.00;;;;;26.16;31.79;101145.47;5059236;28;45233;-64
2023/07/11 01:30:56;;;;;;;;;6.00;5.25;;;;;26.16;31.25;101141.94;5059341;28;45241;-64
2023/07/11 01:33:24;;;;;;;;;7.00;4.50;;;;;26.12;31.99;101149.38;5057864;28;45483;-64
2023/07/11 01:35:51;;;;;;;;;6.25;4.75;;;;;26.08;31.48;101145.19;5059038;28;46961;-64
2023/07/11 01:38:17;;;;;;;;;3.75;3.75;;;;;26.04;31.35;101136.44;5070058;28;45344;-64
2023/07/11 01:40:43;;;;;;;;;4.00;4.00;;;;;26.02;31.89;101140.22;5063078;28;45276;-64
2023/07/11 01:43:08;;;;;;;;;4.50;3.00;;;;;26.00;31.99;101144.84;5062548;28;45485;-64
2023/07/11 01:45:33;;;;;;;;;5.75;4.25;;;;;25.94;32.04;101135.41;5062271;28;46047;-64
2023/07/11 01:47:59;;;;;;;;;7.50;5.75;;;;;25.92;31.77;101132.84;5062596;28;45309;-64
2023/07/11 01:50:24;;;;;;;;;4.75;4.75;;;;;25.92;32.02;101132.84;5062560;28;45235;-64
2023/07/11 01:52:49;;;;;;;;;8.00;4.00;;;;;25.89;31.74;101124.97;5074261;28;45517;-64
2023/07/11 01:55:15;;;;;;;;;3.25;3.00;;;;;25.88;31.75;101131.31;5082428;28;45211;-64
2023/07/11 01:57:40;;;;;;;;;5.50;4.00;;;;;25.87;32.39;101131.44;5082815;28;48403;-64
2023/07/11 02:00:07;;;;;;;;;5.25;5.25;;;;;25.85;32.44;101122.59;5082889;28;45218;-65
2023/07/11 02:02:32;;;;;;;;;4.50;3.75;;;;;25.84;32.11;101123.59;5082704;28;45418;-64
2023/07/11 02:04:58;;;;;;;;;5.00;5.00;;;;;25.82;31.95;101121.00;5081076;28;46202;-64
2023/07/11 02:07:23;;;;;;;;;5.00;5.00;;;;;25.80;32.37;101117.56;5082667;28;45244;-64
2023/07/11 02:09:48;;;;;;;;;6.00;4.75;;;;;25.77;31.94;101112.41;5082287;28;45352;-64
2023/07/11 02:12:14;;;;;;;;;6.00;4.50;;;;;25.75;31.87;101115.22;5082558;28;45491;-64
2023/07/11 02:14:40;;;;;;;;;6.50;5.50;;;;;25.75;31.97;101114.34;5082748;28;46478;-64
2023/07/11 02:17:06;;;;;;;;;6.25;6.00;;;;;25.72;32.33;101110.06;5082963;28;45294;-64
2023/07/11 02:19:31;;;;;;;;;6.00;4.50;;;;;25.71;32.54;101113.72;5081645;28;45344;-64
2023/07/11 02:21:57;;;;;;;;;4.25;4.25;;;;;25.69;32.26;101112.97;5071151;28;45348;-64
2023/07/11 02:24:22;;;;;;;;;3.50;3.50;;;;;25.68;32.48;101107.69;5060806;28;45894;-64
2023/07/11 02:26:47;;;;;;;;;7.00;5.00;;;;;25.66;32.31;101112.31;5061089;28;45332;-64
2023/07/11 02:29:13;;;;;;;;;4.75;4.75;;;;;25.63;32.16;101108.91;5062514;28;45237;-64
2023/07/11 02:31:39;;;;;;;;;3.75;3.75;;;;;25.61;32.26;101102.75;5062440;28;45361;-64
2023/07/11 02:34:05;;;;;;;;;7.00;6.00;;;;;25.59;32.60;101099.31;5062282;28;45322;-64
2023/07/11 02:36:31;;;;;;;;;4.25;3.50;;;;;25.58;32.33;101091.34;5062280;28;45238;-64
2023/07/11 02:38:57;;;;;;;;;7.00;5.00;;;;;25.55;32.92;101091.59;5062060;28;45489;-64
2023/07/11 02:41:22;;;;;;;;;5.50;4.50;;;;;25.54;32.41;101095.25;5062212;28;45394;-64
2023/07/11 02:43:47;;;;;;;;;9.00;5.00;;;;;25.51;32.97;101084.69;5062138;28;45886;-64
2023/07/11 02:46:14;;;;;;;;;5.25;4.25;;;;;25.51;33.05;101090.06;5062107;28;45346;-64
2023/07/11 02:48:40;;;;;;;;;5.00;3.75;;;;;25.49;32.58;101079.41;5062296;28;45334;-64
2023/07/11 02:51:05;;;;;;;;;6.50;6.50;;;;;25.48;33.05;101075.00;5061612;28;45498;-64
2023/07/11 02:53:31;;;;;;;;;4.75;4.50;;;;;25.46;32.64;101080.50;5079639;28;45298;-64
2023/07/11 02:55:56;;;;;;;;;7.75;5.50;;;;;25.46;32.85;101082.34;5082135;28;45338;-64
2023/07/11 02:58:22;;;;;;;;;7.75;6.00;;;;;25.43;33.17;101077.16;5081186;28;45271;-64
2023/07/11 03:00:54;;;;;;;;;5.50;5.25;;;;;25.42;33.08;101072.75;5082271;28;45543;-64
2023/07/11 03:03:20;;;;;;;;;4.50;4.25;;;;;25.41;33.15;101077.28;5082124;28;46737;-64
2023/07/11 03:05:50;;;;;;;;;8.00;5.25;;;;;25.41;32.80;101077.28;5082083;28;45380;-61
2023/07/11 03:08:16;;;;;;;;;7.00;5.00;;;;;25.39;33.34;101071.16;5082210;28;45295;-64
2023/07/11 03:10:42;;;;;;;;;5.50;5.50;;;;;25.37;32.90;101075.78;5081638;28;45482;-64
2023/07/11 03:13:08;;;;;;;;;5.50;3.50;;;;;25.36;33.27;101065.09;5080359;28;46833;-64
2023/07/11 03:15:34;;;;;;;;;5.00;4.75;;;;;25.34;33.34;101069.75;5080995;27;45415;-64
2023/07/11 03:18:00;;;;;;;;;8.00;7.00;;;;;25.31;33.35;101068.97;5082175;28;45309;-64
2023/07/11 03:20:25;;;;;;;;;4.25;4.00;;;;;25.30;33.48;101066.41;5081964;28;45491;-64
2023/07/11 03:23:24;;;;;;;;;8.00;5.50;;;;;25.25;33.09;101055.97;5062899;28;46192;-64
2023/07/11 03:25:50;;;;;;;;;7.00;6.00;;;;;25.21;33.54;101062.53;5061217;28;45271;-64
2023/07/11 03:28:15;;;;;;;;;6.00;3.00;;;;;25.19;32.98;101059.09;5060276;28;45386;-64
2023/07/11 03:30:41;;;;;;;;;7.50;5.00;;;;;25.17;33.78;101058.38;5061515;28;45344;-64
2023/07/11 03:33:07;;;;;;;;;7.00;6.00;;;;;25.12;33.28;101049.75;5061303;28;45450;-64
2023/07/11 03:35:33;;;;;;;;;5.25;5.25;;;;;25.11;33.67;101050.72;5061247;28;45332;-64
2023/07/11 03:37:59;;;;;;;;;4.75;4.75;;;;;25.07;33.31;101043.81;5061573;28;45322;-64
2023/07/11 03:40:24;;;;;;;;;8.75;7.25;;;;;25.06;33.57;101050.19;5060962;28;45391;-63
2023/07/11 03:42:50;;;;;;;;;6.25;4.00;;;;;25.01;33.45;101050.50;5060004;28;47435;-64
2023/07/11 03:45:15;;;;;;;;;4.00;4.00;;;;;24.97;33.88;101052.56;5061265;28;45323;-64
2023/07/11 03:47:40;;;;;;;;;5.50;5.00;;;;;24.95;33.61;101049.09;5061521;28;45237;-64
2023/07/11 03:50:06;;;;;;;;;7.00;5.50;;;;;24.88;33.76;101039.78;5061095;28;45325;-64
2023/07/11 03:52:31;;;;;;;;;7.00;5.75;;;;;24.87;33.64;101038.03;5070352;28;45298;-64
2023/07/11 03:54:57;;;;;;;;;7.50;3.00;;;;;24.85;33.73;101042.66;5081116;28;45416;-64
2023/07/11 03:57:22;;;;;;;;;4.75;4.50;;;;;24.82;33.79;101034.81;5081573;27;45292;-64
2023/07/11 03:59:48;;;;;;;;;5.25;5.25;;;;;24.78;34.03;101031.50;5081402;28;45351;-64
2023/07/11 04:02:14;;;;;;;;;6.25;4.00;;;;;24.77;33.88;101034.28;5079125;28;45358;-64
2023/07/11 04:04:39;;;;;;;;;5.00;5.00;;;;;24.73;33.90;101036.31;5081278;28;45234;-64
2023/07/11 04:07:05;;;;;;;;;6.25;5.00;;;;;24.71;33.92;101032.88;5081295;28;45211;-64
2023/07/11 04:09:30;;;;;;;;;6.00;6.00;;;;;24.69;33.74;101025.88;5081001;28;45186;-64
2023/07/11 04:11:56;;;;;;;;;5.50;4.00;;;;;24.66;34.03;101029.66;5080929;28;46081;-63
2023/07/11 04:14:22;;;;;;;;;4.00;4.00;;;;;24.62;34.21;101020.91;5081112;28;45316;-63
2023/07/11 04:16:47;;;;;;;;;5.00;5.00;;;;;24.57;34.15;101020.38;5081217;28;45419;-64
2023/07/11 04:19:12;;;;;;;;;4.50;4.25;;;;;24.56;34.15;101018.63;5081031;28;45333;-64
2023/07/11 04:21:38;;;;;;;;;9.00;5.00;;;;;24.54;34.09;101025.97;5071788;28;45244;-64
2023/07/11 04:24:03;;;;;;;;;5.50;4.75;;;;;24.52;34.47;101022.50;5060519;28;45487;-63
2023/07/11 04:26:29;;;;;;;;;6.00;6.00;;;;;24.49;34.63;101017.38;5060629;28;45495;-64
2023/07/11 04:28:54;;;;;;;;;9.25;5.00;;;;;24.48;34.38;101015.63;5060384;28;50913;-64
2023/07/11 04:31:20;;;;;;;;;4.25;4.00;;;;;24.41;34.81;101008.97;5060499;28;48125;-63
2023/07/11 04:33:46;;;;;;;;;6.00;5.00;;;;;24.45;35.05;101013.16;5059134;28;45275;-63
2023/07/11 04:36:13;;;;;;;;;7.00;5.00;;;;;24.42;34.41;101011.53;5060693;28;45343;-64
2023/07/11 04:38:39;;;;;;;;;9.25;7.00;;;;;24.41;34.60;101014.34;5060450;28;45474;-63
2023/07/11 04:41:06;;;;;;;;;6.75;5.00;;;;;24.40;34.62;101012.59;5059966;28;46337;-63
2023/07/11 04:43:35;;;;;;;;;8.00;7.00;;;;;24.39;34.65;101010.88;5060234;28;45355;-63
2023/07/11 04:46:03;;;;;;;;;36.25;31.00;;;;;24.37;34.75;101007.47;5060387;28;45319;-63
2023/07/11 04:48:28;;;;;;;;;19.25;17.25;;;;;24.38;34.52;101011.84;5060298;28;45251;-64
2023/07/11 04:51:03;;;;;;;;;13.75;10.00;;;;;24.38;34.90;101003.78;5060047;28;45324;-64
2023/07/11 04:53:29;;;;;;;;;11.75;6.50;;;;;24.37;34.81;101005.63;5077451;28;45160;-64
2023/07/11 04:55:59;;;;;;;;;7.00;5.75;;;;;24.38;34.82;101007.34;5080252;27;45380;-64
2023/07/11 04:58:28;;;;;;;;;9.00;5.00;;;;;24.37;35.12;101002.09;5080325;28;45461;-64
2023/07/11 05:01:01;;;;;;;;;6.25;5.00;;;;;24.34;34.99;101008.53;5080400;28;45391;-64
2023/07/11 05:03:27;;;;;;;;;5.50;4.50;;;;;24.30;34.84;101002.50;5080325;28;45308;-64
2023/07/11 05:05:52;;;;;;;;;12.50;10.00;;;;;24.33;34.98;101007.66;5079244;28;45389;-64
2023/07/11 05:08:17;;;;;;;;;6.25;3.50;;;;;24.34;35.23;101011.22;5080282;28;49256;-64
2023/07/11 05:10:53;;;;;;;;;6.50;5.50;;;;;24.32;35.19;101016.66;5079997;28;45392;-64
2023/07/11 05:13:19;;;;;;;;;11.75;7.50;;;;;24.30;35.17;101007.88;5080304;28;45267;-64
2023/07/11 05:15:45;;;;;;;;;9.75;9.25;;;;;24.32;35.12;101010.44;5080205;28;45309;-64
2023/07/11 05:18:10;;;;;;;;;6.25;5.50;;;;;24.31;35.51;101011.41;5080152;28;45464;-64
2023/07/11 05:20:35;;;;;;;;;15.00;13.00;;;;;24.30;35.80;101007.00;5079897;28;45446;-64
2023/07/11 05:23:01;;;;;;;;;6.00;5.00;;;;;24.26;35.56;101009.03;5060059;28;45224;-64
2023/07/11 05:25:26;;;;;;;;;4.75;4.75;;;;;24.21;35.60;101000.44;5059642;28;45281;-64
2023/07/11 05:27:51;;;;;;;;;6.75;5.50;;;;;24.25;35.71;101004.66;5059770;28;45269;-64
2023/07/11 05:30:17;;;;;;;;;6.25;5.25;;;;;24.25;35.42;100998.41;5059633;28;46149;-64
2023/07/11 05:32:43;;;;;;;;;8.25;7.75;;;;;24.24;35.57;101000.22;5059472;28;45390;-64
2023/07/11 05:35:08;;;;;;;;;6.75;3.50;;;;;24.23;35.62;100995.81;5059725;28;45279;-64
2023/07/11 05:37:34;;;;;;;;;8.25;6.00;;;;;24.22;35.75;100986.03;5059602;28;45546;-64
2023/07/11 05:39:59;;;;;;;;;5.50;5.50;;;;;24.23;35.89;100997.66;5059202;28;47032;-64
2023/07/11 05:42:24;;;;;;;;;6.75;4.25;;;;;24.23;35.91;100998.50;5059571;28;45317;-64
2023/07/11 05:44:50;;;;;;;;;8.00;7.00;;;;;24.24;35.79;100985.94;5058578;27;49010;-65
2023/07/11 05:47:15;;;;;;;;;8.00;6.50;;;;;24.25;35.78;100999.28;5078869;28;45315;-63
2023/07/11 05:49:40;;;;;;;;;8.00;6.00;;;;;24.25;35.92;100993.91;5077050;28;47172;-63
2023/07/11 05:52:06;;;;;;;;;7.50;6.00;;;;;24.26;35.86;100990.22;5063803;28;46256;-63
2023/07/11 05:54:31;;;;;;;;;9.25;6.00;;;;;24.27;35.92;100991.97;5068422;28;45271;-63
2023/07/11 05:56:56;;;;;;;;;7.00;7.00;;;;;24.29;35.74;101006.16;5066432;28;45467;-63
2023/07/11 05:59:22;;;;;;;;;8.00;5.50;;;;;24.29;35.95;101008.00;5065617;28;45380;-63
2023/07/11 06:01:47;;;;;;;;;9.50;7.50;;;;;24.27;36.10;101007.22;5075338;28;45287;-63
2023/07/11 06:04:15;;;;;;;;;7.25;7.25;;;;;24.26;36.24;101000.13;5073505;28;45470;-66
2023/07/11 06:06:42;;;;;;;;;8.75;5.75;;;;;24.29;36.54;101005.31;5071677;28;45299;-63
2023/07/11 06:09:14;;;;;;;;;9.75;7.00;;;;;24.27;36.30;101001.84;5060512;27;45464;-64
2023/07/11 06:11:40;;;;;;;;;11.75;7.50;;;;;24.28;36.33;100999.06;5072746;27;45291;-63
2023/07/11 06:14:06;;;;;;;;;8.25;8.25;;;;;24.28;36.50;100998.22;5059768;28;45173;-68
2023/07/11 06:16:32;;;;;;;;;10.00;7.00;;;;;24.25;36.48;100990.34;5072107;28;45428;-71
2023/07/11 06:18:57;;;;;;;;;13.75;12.75;;;;;24.28;36.42;100993.69;5073450;28;45884;-71
2023/07/11 06:21:22;;;;;;;;;8.25;7.00;;;;;24.29;36.25;101002.63;5072254;28;45279;-69
2023/07/11 06:23:48;;;;;;;;;9.00;9.00;;;;;24.31;36.66;101000.66;5065565;28;45366;-68
2023/07/11 06:26:14;;;;;;;;;10.75;9.50;;;;;24.32;36.85;100991.66;5067831;28;45410;-69
2023/07/11 06:28:39;;;;;;;;;8.00;7.75;;;;;24.34;36.63;100995.09;5062908;28;46496;-67
2023/07/11 06:31:06;;;;;;;;;7.75;7.00;;;;;24.36;36.85;101003.06;5074020;28;45308;-67
2023/07/11 06:33:31;;;;;;;;;8.50;8.00;;;;;24.34;36.90;100985.22;5062953;28;45312;-67
2023/07/11 06:35:57;;;;;;;;;8.50;6.75;;;;;24.40;36.65;100988.44;5075712;28;45418;-68
2023/07/11 06:38:22;;;;;;;;;6.75;6.00;;;;;24.44;36.94;100995.31;5063412;27;45257;-67
2023/07/11 06:40:50;;;;;;;;;8.75;8.25;;;;;24.43;37.12;100986.41;5075434;28;45210;-66
2023/07/11 06:43:17;;;;;;;;;12.50;8.00;;;;;24.47;36.84;100990.59;5066024;28;45267;-72
2023/07/11 06:45:48;;;;;;;;;7.25;6.50;;;;;24.51;36.92;100985.88;5067391;28;45507;-68
2023/07/11 06:48:18;;;;;;;;;4.75;3.75;;;;;24.52;36.97;100984.91;5065578;28;47271;-67
2023/07/11 06:50:52;;;;;;;;;4.50;4.50;;;;;24.54;37.34;100985.69;5060638;28;45389;-67
2023/07/11 06:53:19;;;;;;;;;3.00;3.00;;;;;24.56;37.26;100977.50;5061768;28;45357;-67
2023/07/11 06:55:50;;;;;;;;;5.25;4.75;;;;;24.57;37.16;100980.06;5060293;28;45597;-67
2023/07/11 06:58:16;;;;;;;;;6.50;6.00;;;;;24.56;37.31;100969.44;5061886;28;45271;-67
2023/07/11 07:00:42;;;;;;;;;7.00;4.25;;;;;24.62;37.07;100979.75;5061816;28;45418;-67
2023/07/11 07:03:13;;;;;;;;;5.25;4.00;;;;;24.63;36.93;100979.66;5062272;28;45500;-67
2023/07/11 07:05:56;;;;;;;;;4.50;4.50;;;;;24.63;37.05;100971.59;5061949;28;45212;-67
2023/07/11 07:08:24;;;;;;;;;6.50;4.00;;;;;24.66;37.07;100970.53;5060274;28;45491;-67
2023/07/11 07:10:50;;;;;;;;;3.25;3.25;;;;;24.64;37.22;100948.25;5061509;28;45401;-67
2023/07/11 07:13:18;;;;;;;;;4.50;4.00;;;;;24.73;37.10;100968.28;5061941;28;45287;-67
2023/07/11 07:15:49;;;;;;;;;6.50;4.00;;;;;24.76;37.17;100973.44;5061639;28;45481;-67
2023/07/11 07:18:16;;;;;;;;;5.75;4.50;;;;;24.72;36.96;100953.16;5061479;28;45173;-67
2023/07/11 07:20:43;;;;;;;;;6.50;5.25;;;;;24.80;36.90;100962.38;5061629;28;45320;-67
2023/07/11 07:23:09;;;;;;;;;5.75;4.00;;;;;24.85;37.27;100964.72;5061399;28;45294;-67
2023/07/11 07:25:35;;;;;;;;;7.00;5.75;;;;;24.85;37.31;100959.34;5061499;28;45336;-67
2023/07/11 07:28:00;;;;;;;;;6.00;5.75;;;;;24.92;37.36;100967.84;5061367;28;45420;-67
2023/07/11 07:30:26;;;;;;;;;5.00;3.75;;;;;24.94;37.26;100957.84;5061762;28;45358;-67
2023/07/11 07:32:51;;;;;;;;;12.50;9.25;;;;;24.95;36.59;100956.88;5061436;28;45307;-66
2023/07/11 07:35:16;;;;;;;;;3.00;3.00;;;;;25.03;36.72;100964.38;5061560;28;45336;-67
2023/07/11 07:37:42;;;;;;;;;4.75;3.50;;;;;25.06;36.51;100959.66;5059883;28;50603;-67
2023/07/11 07:40:07;;;;;;;;;5.75;5.00;;;;;25.08;37.05;100949.66;5061171;28;45318;-67
2023/07/11 07:42:33;;;;;;;;;8.25;4.50;;;;;25.12;36.51;100943.06;5061387;28;45382;-67
2023/07/11 07:44:58;;;;;;;;;5.75;4.75;;;;;25.17;37.15;100945.44;5061540;28;45220;-67
2023/07/11 07:47:23;;;;;;;;;5.00;5.00;;;;;25.21;37.30;100952.31;5063681;28;47072;-67
2023/07/11 07:49:49;;;;;;;;;5.50;5.25;;;;;25.23;37.17;100950.38;5081708;28;45208;-67
2023/07/11 07:52:14;;;;;;;;;5.50;4.25;;;;;25.26;37.01;100952.81;5081186;28;45425;-67
2023/07/11 07:54:39;;;;;;;;;5.75;4.50;;;;;25.29;37.10;100949.03;5081132;28;45564;-67
2023/07/11 07:57:05;;;;;;;;;4.00;4.00;;;;;25.32;37.15;100951.53;5078529;28;45360;-67
2023/07/11 07:59:30;;;;;;;;;6.00;6.00;;;;;25.36;37.18;100942.28;5061239;28;45245;-66
2023/07/11 08:01:56;;;;;;;;;4.75;4.75;;;;;25.40;36.84;100943.78;5060988;28;45247;-66
2023/07/11 08:04:21;;;;;;;;;3.50;3.50;;;;;25.46;37.37;100945.16;5061317;28;45365;-66
2023/07/11 08:06:47;;;;;;;;;5.00;4.00;;;;;25.49;37.08;100947.63;5060641;28;45331;-66
2023/07/11 08:09:12;;;;;;;;;7.00;5.75;;;;;25.52;36.82;100933.94;5060841;28;45334;-66
2023/07/11 08:11:37;;;;;;;;;6.25;6.00;;;;;25.56;36.72;100937.25;5060910;28;45329;-66
2023/07/11 08:14:03;;;;;;;;;5.25;3.75;;;;;25.59;37.01;100928.97;5060909;28;45331;-66
2023/07/11 08:16:29;;;;;;;;;6.00;6.00;;;;;25.63;37.24;100917.88;5060861;28;45399;-66
2023/07/11 08:18:54;;;;;;;;;8.50;6.50;;;;;25.67;37.32;100913.09;5060788;28;45342;-66
2023/07/11 08:21:20;;;;;;;;;7.25;5.00;;;;;25.71;36.92;100914.59;5060549;28;45383;-66
2023/07/11 08:23:45;;;;;;;;;5.00;4.00;;;;;25.75;37.44;100905.31;5060475;28;45513;-65
2023/07/11 08:26:11;;;;;;;;;4.25;3.50;;;;;25.80;37.47;100904.97;5060447;28;46211;-66
2023/07/11 08:28:36;;;;;;;;;4.50;4.00;;;;;25.84;36.98;100900.22;5060789;28;45257;-66
2023/07/11 08:31:04;;;;;;;;;7.00;4.00;;;;;25.87;37.28;100894.56;5060326;28;46791;-66
2023/07/11 08:33:30;;;;;;;;;5.00;3.50;;;;;25.92;37.72;100898.66;5060621;28;45496;-65
2023/07/11 08:35:56;;;;;;;;;4.75;3.50;;;;;25.98;37.03;100891.06;5060347;28;45291;-66
2023/07/11 08:38:22;;;;;;;;;7.25;5.00;;;;;26.01;37.51;100896.19;5060525;28;45239;-66
2023/07/11 08:40:48;;;;;;;;;3.50;3.00;;;;;26.05;37.15;100903.97;5060223;28;45546;-66
2023/07/11 08:43:19;;;;;;;;;5.50;5.50;;;;;26.06;36.96;100902.13;5060435;28;45318;-65
2023/07/11 08:45:53;;;;;;;;;5.00;5.00;;;;;26.14;37.49;100899.69;5058858;28;47369;-66
2023/07/11 08:48:28;;;;;;;;;4.00;3.25;;;;;26.20;37.18;100903.75;5070145;28;45315;-66
2023/07/11 08:51:03;;;;;;;;;4.50;4.50;;;;;26.23;36.85;100893.59;5080707;28;45343;-66
2023/07/11 08:53:45;;;;;;;;;4.50;4.50;;;;;26.29;37.28;100884.19;5080444;28;45350;-66
2023/07/11 08:56:19;;;;;;;;;4.00;4.00;;;;;26.34;37.29;100890.06;5080189;28;46441;-67
2023/07/11 08:58:47;;;;;;;;;3.50;3.50;;;;;26.39;37.23;100887.00;5064432;27;45271;-67
2023/07/11 09:01:46;;;;;;;;;6.00;3.00;;;;;26.48;36.64;100882.72;5060308;28;45251;-67
2023/07/11 09:04:16;;;;;;;;;4.00;4.00;;;;;26.52;36.95;100876.13;5066675;28;45211;-66
2023/07/11 09:06:54;;;;;;;;;3.50;3.50;;;;;26.54;36.91;100880.41;5080127;28;45383;-66
2023/07/11 09:09:20;;;;;;;;;5.25;5.25;;;;;26.59;36.84;100872.81;5080397;28;45509;-66
2023/07/11 09:12:10;;;;;;;;;4.25;3.50;;;;;26.66;37.24;100870.47;5080127;28;45253;-66
2023/07/11 09:15:21;;;;;;;;;4.50;4.50;;;;;26.73;37.07;100873.53;5079017;28;45466;-67
2023/07/11 09:18:16;;;;;;;;;6.50;4.00;;;;;26.79;36.97;100858.72;5044145;28;45441;-66
2023/07/11 09:20:47;;;;;;;;;6.75;4.00;;;;;26.84;37.04;100864.59;5048191;28;45400;-67
2023/07/11 09:23:25;;;;;;;;;4.00;4.00;;;;;26.89;36.58;100868.66;5054866;28;45536;-66
2023/07/11 09:25:51;;;;;;;;;8.50;7.00;;;;;26.95;37.08;100867.28;5039632;28;45187;-67
2023/07/11 09:28:24;;;;;;;;;7.00;5.75;;;;;27.01;36.84;100860.53;5039490;28;47357;-66
2023/07/11 09:30:56;;;;;;;;;6.00;4.75;;;;;27.05;36.87;100862.00;5039864;28;45485;-67
2023/07/11 09:33:30;;;;;;;;;3.25;3.25;;;;;27.08;37.04;100867.13;5039723;28;45390;-66
2023/07/11 09:35:58;;;;;;;;;5.25;4.50;;;;;27.14;36.95;100860.38;5039427;28;45317;-67
2023/07/11 09:38:31;;;;;;;;;5.25;4.00;;;;;27.18;36.92;100857.31;5039448;28;45196;-66
2023/07/11 09:41:02;;;;;;;;;5.00;4.00;;;;;27.22;37.35;100839.88;5039452;28;45360;-67
2023/07/11 09:43:28;;;;;;;;;5.50;5.50;;;;;27.30;37.10;100847.31;5039605;28;45277;-67
2023/07/11 09:45:54;;;;;;;;;5.25;5.25;;;;;27.34;37.03;100838.00;5039127;28;45481;-67
2023/07/11 09:48:31;;;;;;;;;4.50;4.50;;;;;27.41;36.60;100846.47;5049916;28;46069;-67
2023/07/11 09:51:05;;;;;;;;;4.00;3.25;;;;;27.45;36.86;100826.34;5059452;28;45323;-67
2023/07/11 09:53:31;;;;;;;;;6.00;5.00;;;;;27.51;37.08;100831.22;5059350;28;45398;-67
2023/07/11 09:55:59;;;;;;;;;7.00;7.00;;;;;27.56;37.01;100826.28;5059322;28;45233;-67
2023/07/11 09:58:29;;;;;;;;;5.25;5.00;;;;;27.63;36.52;100829.31;5039103;28;46209;-66
2023/07/11 10:01:00;;;;;;;;;5.75;5.50;;;;;27.66;37.31;100829.06;5041194;28;45482;-67
2023/07/11 10:03:28;;;;;;;;;5.00;5.00;;;;;27.73;37.03;100823.97;5042874;28;45175;-66
2023/07/11 10:05:54;;;;;;;;;5.50;4.00;;;;;27.79;36.90;100822.59;5042784;28;45455;-67
2023/07/11 10:08:27;;;;;;;;;7.75;5.00;;;;;27.83;36.66;100813.25;5042412;28;46325;-67
2023/07/11 10:10:55;;;;;;;;;6.50;6.50;;;;;27.89;37.01;100808.16;5042671;28;45422;-67
2023/07/11 10:13:22;;;;;;;;;5.25;5.00;;;;;27.97;36.52;100817.44;5042508;28;45309;-67
2023/07/11 10:15:57;;;;;;;;;5.25;5.25;;;;;28.03;36.78;100814.22;5042766;28;45169;-67
2023/07/11 10:18:32;;;;;;;;;6.50;5.00;;;;;28.10;36.37;100798.34;5042293;28;46326;-67
2023/07/11 10:21:12;;;;;;;;;5.50;5.50;;;;;28.19;36.91;100803.81;5042715;28;45230;-67
2023/07/11 10:23:38;;;;;;;;;4.00;3.00;;;;;28.28;36.57;100796.75;5082943;28;45536;-67
2023/07/11 10:26:19;;;;;;;;;6.75;5.00;;;;;28.36;36.34;100799.63;5082818;27;45632;-67
2023/07/11 10:29:17;;;;;;;;;9.00;5.00;;;;;28.47;36.37;100804.06;5082700;28;46079;-66
2023/07/11 10:32:12;;;;;;;;;6.75;6.75;;;;;28.60;36.23;100786.75;5069155;28;45426;-67
2023/07/11 10:34:43;;;;;;;;;6.50;5.75;;;;;28.73;36.24;100789.22;5081832;28;45539;-66
2023/07/11 10:37:16;;;;;;;;;7.75;5.75;;;;;28.82;36.25;100783.00;5082616;28;45306;-67
2023/07/11 10:39:51;;;;;;;;;5.75;5.75;;;;;29.03;35.97;100781.03;5082252;28;45284;-66
2023/07/11 10:42:38;;;;;;;;;5.00;5.00;;;;;29.32;36.27;100774.78;5082410;28;45274;-67
2023/07/11 10:45:11;;;;;;;;;6.00;4.75;;;;;29.61;35.66;100773.03;5082592;28;45322;-66
2023/07/11 10:47:41;;;;;;;;;10.50;9.25;;;;;29.94;36.10;100762.72;5070131;28;45315;-66
2023/07/11 10:50:47;;;;;;;;;7.75;5.75;;;;;30.42;36.16;100769.75;5081100;28;45651;-67
2023/07/11 10:53:39;;;;;;;;;6.25;6.25;;;;;30.87;35.99;100759.97;5048975;28;45345;-66
2023/07/11 10:56:19;;;;;;;;;6.00;4.50;;;;;31.27;35.59;100750.50;5069920;28;45352;-66
2023/07/11 10:58:45;;;;;;;;;7.75;7.00;;;;;31.71;35.51;100752.41;5080862;28;45447;-66
2023/07/11 11:01:35;;;;;;;;;4.00;4.00;;;;;32.13;34.88;100749.91;5082182;28;45311;-67
2023/07/11 11:04:38;;;;;;;;;3.50;3.00;;;;;32.66;34.89;100748.72;5082199;28;45261;-66
2023/07/11 11:07:22;;;;;;;;;4.75;4.75;;;;;33.13;34.75;100730.97;5082030;28;45362;-67
2023/07/11 11:10:04;;;;;;;;;6.00;5.75;;;;;33.58;34.52;100733.34;5081789;28;45223;-66
2023/07/11 11:12:35;;;;;;;;;6.00;4.75;;;;;33.99;34.11;100727.81;5081725;28;47003;-66
2023/07/11 11:15:12;;;;;;;;;3.25;3.25;;;;;34.38;33.82;100729.69;5080500;28;45245;-66
2023/07/11 11:17:51;;;;;;;;;6.00;5.00;;;;;34.79;33.48;100734.91;5082232;28;45326;-67
2023/07/11 11:20:38;;;;;;;;;4.00;4.00;;;;;35.11;33.08;100716.59;5081804;28;45365;-66
2023/07/11 11:23:18;;;;;;;;;5.75;5.75;;;;;35.56;32.65;100727.63;5080096;28;47239;-67
2023/07/11 11:25:51;;;;;;;;;6.75;6.00;;;;;35.84;32.44;100732.44;5080153;28;45288;-66
2023/07/11 11:28:40;;;;;;;;;6.25;6.25;;;;;36.12;31.60;100729.06;5080488;28;45526;-66
2023/07/11 11:31:23;;;;;;;;;6.75;4.75;;;;;36.45;31.41;100723.16;5080659;28;45323;-66